BMX weather

Big Mountain Airport
Big Mountain, Alaska, United States

Public forecast

Using degrees Fahrenheit for public forecast. Weather courtesy of forecast.io.

Closest aviation weather report (METAR) to Big Mountain Airport

Closest report is Igiugig Airport, 19.8 nm (36.7 km) W. Retrieved 2020/08/05 23:56 UTC (35 minutes ago):

PAIG 052356Z AUTO 03005KT 10SM SCT002 BKN070 13/12 A2958 RMK AO2 SLP023 T01330117 10156 20122 56026

Closest aviation forecast (TAF) to Big Mountain Airport

Closest forecast is Iliamna Airport, 25.9 nm (47.9 km) NNE. Retrieved 2020-08-06 00:33 UTC (0 seconds ago):

TAF PAIL 052330Z 0600/0624 VRB03KT P6SM FEW050 BKN200 FM060600 11015G23KT P6SM -RA SCT050 OVC100